sensor_id;sensor_type;location;lat;lon;timestamp;pressure;altitude;pressure_sealevel;temperature;humidity
37291;BME280;23175;-33.706;151.094;2023-04-20T00:00:39;100641.82;;;15.90;61.05
37291;BME280;23175;-33.706;151.094;2023-04-20T00:03:09;100644.54;;;15.51;61.53
37291;BME280;23175;-33.706;151.094;2023-04-20T00:05:39;100643.49;;;15.90;61.01
37291;BME280;23175;-33.706;151.094;2023-04-20T00:08:09;100646.31;;;13.31;68.97
37291;BME280;23175;-33.706;151.094;2023-04-20T00:10:39;100641.32;;;13.73;65.84
37291;BME280;23175;-33.706;151.094;2023-04-20T00:13:08;100646.61;;;13.72;66.41
37291;BME280;23175;-33.706;151.094;2023-04-20T00:15:38;100642.08;;;13.25;66.52
37291;BME280;23175;-33.706;151.094;2023-04-20T00:18:13;100639.29;;;12.25;68.17
37291;BME280;23175;-33.706;151.094;2023-04-20T00:20:44;100639.72;;;10.92;72.93
37291;BME280;23175;-33.706;151.094;2023-04-20T00:23:13;100635.31;;;12.30;69.38
37291;BME280;23175;-33.706;151.094;2023-04-20T00:25:43;100634.31;;;12.96;68.74
37291;BME280;23175;-33.706;151.094;2023-04-20T00:28:13;100634.58;;;13.79;67.18
37291;BME280;23175;-33.706;151.094;2023-04-20T00:30:43;100629.34;;;12.27;68.98
37291;BME280;23175;-33.706;151.094;2023-04-20T00:33:13;100635.11;;;13.10;68.61
37291;BME280;23175;-33.706;151.094;2023-04-20T00:35:43;100638.90;;;12.03;70.52
37291;BME280;23175;-33.706;151.094;2023-04-20T00:38:13;100638.08;;;13.52;67.57
37291;BME280;23175;-33.706;151.094;2023-04-20T00:40:44;100637.54;;;13.69;67.94
37291;BME280;23175;-33.706;151.094;2023-04-20T00:43:15;100642.17;;;14.66;63.83
37291;BME280;23175;-33.706;151.094;2023-04-20T00:45:46;100642.53;;;12.14;69.03
37291;BME280;23175;-33.706;151.094;2023-04-20T00:48:17;100644.29;;;12.37;70.58
37291;BME280;23175;-33.706;151.094;2023-04-20T00:50:49;100641.56;;;11.89;71.81
37291;BME280;23175;-33.706;151.094;2023-04-20T00:53:20;100639.93;;;13.93;67.32
37291;BME280;23175;-33.706;151.094;2023-04-20T00:55:51;100644.04;;;14.37;64.56
37291;BME280;23175;-33.706;151.094;2023-04-20T00:58:22;100641.12;;;13.30;66.00
37291;BME280;23175;-33.706;151.094;2023-04-20T01:00:52;100647.64;;;10.53;72.93
37291;BME280;23175;-33.706;151.094;2023-04-20T01:03:23;100638.37;;;12.69;68.30
37291;BME280;23175;-33.706;151.094;2023-04-20T01:05:52;100643.61;;;13.79;65.92
37291;BME280;23175;-33.706;151.094;2023-04-20T01:08:26;100641.94;;;12.69;68.77
37291;BME280;23175;-33.706;151.094;2023-04-20T01:10:57;100641.60;;;11.60;70.79
37291;BME280;23175;-33.706;151.094;2023-04-20T01:13:26;100639.82;;;15.50;61.87
37291;BME280;23175;-33.706;151.094;2023-04-20T01:15:59;100645.25;;;13.08;66.28
37291;BME280;23175;-33.706;151.094;2023-04-20T01:18:39;100646.66;;;12.31;68.12
37291;BME280;23175;-33.706;151.094;2023-04-20T01:21:09;100643.26;;;13.57;67.45
37291;BME280;23175;-33.706;151.094;2023-04-20T01:23:40;100644.83;;;14.85;63.27
37291;BME280;23175;-33.706;151.094;2023-04-20T01:26:11;100642.67;;;13.27;66.99
37291;BME280;23175;-33.706;151.094;2023-04-20T01:28:42;100646.12;;;14.56;63.96
37291;BME280;23175;-33.706;151.094;2023-04-20T01:31:13;100645.30;;;11.22;70.27
37291;BME280;23175;-33.706;151.094;2023-04-20T01:33:43;100644.13;;;15.95;60.69
37291;BME280;23175;-33.706;151.094;2023-04-20T01:36:13;100644.08;;;14.74;63.23
37291;BME280;23175;-33.706;151.094;2023-04-20T01:38:44;100642.79;;;12.04;69.83
37291;BME280;23175;-33.706;151.094;2023-04-20T01:41:13;100640.05;;;12.94;69.67
37291;BME280;23175;-33.706;151.094;2023-04-20T01:43:43;100635.81;;;15.84;61.05
37291;BME280;23175;-33.706;151.094;2023-04-20T01:46:14;100632.71;;;16.97;58.16
37291;BME280;23175;-33.706;151.094;2023-04-20T01:48:44;100633.78;;;16.72;57.88
37291;BME280;23175;-33.706;151.094;2023-04-20T01:51:13;100628.75;;;16.74;58.21
37291;BME280;23175;-33.706;151.094;2023-04-20T01:53:43;100625.14;;;16.18;58.97
37291;BME280;23175;-33.706;151.094;2023-04-20T01:56:13;100623.46;;;15.28;60.31
37291;BME280;23175;-33.706;151.094;2023-04-20T01:58:43;100622.15;;;13.07;65.75
37291;BME280;23175;-33.706;151.094;2023-04-20T02:01:13;100622.80;;;14.39;63.66
37291;BME280;23175;-33.706;151.094;2023-04-20T02:03:42;100615.06;;;15.02;61.98
37291;BME280;23175;-33.706;151.094;2023-04-20T02:06:12;100607.37;;;15.61;60.03
37291;BME280;23175;-33.706;151.094;2023-04-20T02:08:43;100604.86;;;16.33;59.46
37291;BME280;23175;-33.706;151.094;2023-04-20T02:11:13;100605.89;;;14.66;64.23
37291;BME280;23175;-33.706;151.094;2023-04-20T02:13:44;100596.61;;;16.16;59.01
37291;BME280;23175;-33.706;151.094;2023-04-20T02:16:14;100594.95;;;16.28;60.09
37291;BME280;23175;-33.706;151.094;2023-04-20T02:18:44;100599.06;;;13.12;66.74
37291;BME280;23175;-33.706;151.094;2023-04-20T02:21:14;100593.53;;;16.74;58.89
37291;BME280;23175;-33.706;151.094;2023-04-20T02:23:45;100590.70;;;14.16;63.79
37291;BME280;23175;-33.706;151.094;2023-04-20T02:26:14;100587.82;;;15.90;60.37
37291;BME280;23175;-33.706;151.094;2023-04-20T02:28:44;100586.39;;;12.91;66.50
37291;BME280;23175;-33.706;151.094;2023-04-20T02:31:14;100581.59;;;15.07;62.22
37291;BME280;23175;-33.706;151.094;2023-04-20T02:33:44;100580.96;;;12.83;65.78
37291;BME280;23175;-33.706;151.094;2023-04-20T02:36:14;100577.19;;;17.51;57.86
37291;BME280;23175;-33.706;151.094;2023-04-20T02:38:45;100577.04;;;16.46;58.23
37291;BME280;23175;-33.706;151.094;2023-04-20T02:41:15;100576.74;;;13.75;64.91
37291;BME280;23175;-33.706;151.094;2023-04-20T02:43:45;100566.16;;;16.28;59.32
37291;BME280;23175;-33.706;151.094;2023-04-20T02:46:16;100565.04;;;15.78;59.93
37291;BME280;23175;-33.706;151.094;2023-04-20T02:48:46;100564.19;;;14.18;63.94
37291;BME280;23175;-33.706;151.094;2023-04-20T02:51:16;100559.55;;;13.89;65.62
37291;BME280;23175;-33.706;151.094;2023-04-20T02:53:47;100556.16;;;17.24;57.88
37291;BME280;23175;-33.706;151.094;2023-04-20T02:56:16;100559.34;;;13.18;65.48
37291;BME280;23175;-33.706;151.094;2023-04-20T02:58:47;100552.51;;;15.20;63.70
37291;BME280;23175;-33.706;151.094;2023-04-20T03:01:17;100547.95;;;17.72;57.89
37291;BME280;23175;-33.706;151.094;2023-04-20T03:03:47;100551.84;;;15.98;61.29
37291;BME280;23175;-33.706;151.094;2023-04-20T03:06:17;100551.35;;;12.54;69.30
37291;BME280;23175;-33.706;151.094;2023-04-20T03:08:48;100550.51;;;14.97;64.71
37291;BME280;23175;-33.706;151.094;2023-04-20T03:11:18;100551.13;;;14.37;64.89
37291;BME280;23175;-33.706;151.094;2023-04-20T03:13:48;100543.51;;;16.85;59.75
37291;BME280;23175;-33.706;151.094;2023-04-20T03:16:18;100542.90;;;15.70;62.71
37291;BME280;23175;-33.706;151.094;2023-04-20T03:18:48;100540.31;;;14.90;63.95
37291;BME280;23175;-33.706;151.094;2023-04-20T03:21:19;100541.67;;;12.71;68.18
37291;BME280;23175;-33.706;151.094;2023-04-20T03:23:49;100534.14;;;15.01;64.06
37291;BME280;23175;-33.706;151.094;2023-04-20T03:26:19;100531.21;;;16.65;60.14
37291;BME280;23175;-33.706;151.094;2023-04-20T03:28:51;100527.86;;;14.72;63.68
37291;BME280;23175;-33.706;151.094;2023-04-20T03:31:20;100528.98;;;15.54;60.05
37291;BME280;23175;-33.706;151.094;2023-04-20T03:33:51;100533.44;;;13.46;67.67
37291;BME280;23175;-33.706;151.094;2023-04-20T03:36:21;100524.37;;;14.99;62.23
37291;BME280;23175;-33.706;151.094;2023-04-20T03:38:50;100526.34;;;15.72;61.05
37291;BME280;23175;-33.706;151.094;2023-04-20T03:41:20;100530.30;;;16.19;60.08
37291;BME280;23175;-33.706;151.094;2023-04-20T03:43:50;100529.80;;;16.39;60.98
37291;BME280;23175;-33.706;151.094;2023-04-20T03:46:20;100536.51;;;13.03;66.71
37291;BME280;23175;-33.706;151.094;2023-04-20T03:48:50;100534.07;;;14.39;65.13
37291;BME280;23175;-33.706;151.094;2023-04-20T03:51:20;100534.21;;;13.15;68.30
37291;BME280;23175;-33.706;151.094;2023-04-20T03:53:50;100539.92;;;14.10;68.35
37291;BME280;23175;-33.706;151.094;2023-04-20T03:56:20;100546.24;;;14.65;64.75
37291;BME280;23175;-33.706;151.094;2023-04-20T03:58:50;100548.27;;;13.02;67.73
37291;BME280;23175;-33.706;151.094;2023-04-20T04:01:20;100548.55;;;15.05;62.74
37291;BME280;23175;-33.706;151.094;2023-04-20T04:03:51;100549.76;;;13.54;64.55
37291;BME280;23175;-33.706;151.094;2023-04-20T04:06:20;100548.05;;;15.49;62.42
37291;BME280;23175;-33.706;151.094;2023-04-20T04:08:50;100551.51;;;15.98;61.35
37291;BME280;23175;-33.706;151.094;2023-04-20T04:11:20;100545.97;;;16.84;58.02
37291;BME280;23175;-33.706;151.094;2023-04-20T04:13:49;100551.73;;;15.88;61.04
37291;BME280;23175;-33.706;151.094;2023-04-20T04:16:20;100552.41;;;15.52;61.00
37291;BME280;23175;-33.706;151.094;2023-04-20T04:18:50;100550.95;;;17.49;57.68
37291;BME280;23175;-33.706;151.094;2023-04-20T04:21:20;100552.55;;;16.04;58.99
37291;BME280;23175;-33.706;151.094;2023-04-20T04:23:51;100549.79;;;16.10;58.93
37291;BME280;23175;-33.706;151.094;2023-04-20T04:26:21;100550.06;;;14.39;62.77
37291;BME280;23175;-33.706;151.094;2023-04-20T04:28:51;100549.06;;;15.34;61.77
37291;BME280;23175;-33.706;151.094;2023-04-20T04:31:21;100547.77;;;17.96;55.70
37291;BME280;23175;-33.706;151.094;2023-04-20T04:33:51;100548.43;;;17.86;55.53
37291;BME280;23175;-33.706;151.094;2023-04-20T04:36:22;100547.94;;;16.46;57.08
37291;BME280;23175;-33.706;151.094;2023-04-20T04:38:52;100550.68;;;13.13;64.22
37291;BME280;23175;-33.706;151.094;2023-04-20T04:41:22;100544.79;;;16.27;58.28
37291;BME280;23175;-33.706;151.094;2023-04-20T04:43:52;100544.92;;;16.67;58.18
37291;BME280;23175;-33.706;151.094;2023-04-20T04:46:22;100544.65;;;17.29;56.57
37291;BME280;23175;-33.706;151.094;2023-04-20T04:48:52;100544.00;;;12.49;64.88
37291;BME280;23175;-33.706;151.094;2023-04-20T04:51:22;100540.81;;;16.29;59.36
37291;BME280;23175;-33.706;151.094;2023-04-20T04:53:52;100540.52;;;14.15;62.87
37291;BME280;23175;-33.706;151.094;2023-04-20T04:56:22;100540.23;;;15.66;60.47
37291;BME280;23175;-33.706;151.094;2023-04-20T04:58:52;100537.66;;;15.18;61.64
37291;BME280;23175;-33.706;151.094;2023-04-20T05:01:22;100529.97;;;17.06;57.14
37291;BME280;23175;-33.706;151.094;2023-04-20T05:03:53;100533.06;;;16.18;60.25
37291;BME280;23175;-33.706;151.094;2023-04-20T05:06:22;100529.11;;;16.01;58.17
37291;BME280;23175;-33.706;151.094;2023-04-20T05:08:52;100531.64;;;15.14;62.28
37291;BME280;23175;-33.706;151.094;2023-04-20T05:11:22;100530.34;;;14.24;64.20
37291;BME280;23175;-33.706;151.094;2023-04-20T05:13:52;100528.12;;;14.57;64.02
37291;BME280;23175;-33.706;151.094;2023-04-20T05:16:21;100535.14;;;14.43;63.34
37291;BME280;23175;-33.706;151.094;2023-04-20T05:18:52;100531.19;;;16.44;58.94
37291;BME280;23175;-33.706;151.094;2023-04-20T05:21:22;100534.07;;;15.12;61.86
37291;BME280;23175;-33.706;151.094;2023-04-20T05:23:52;100537.29;;;15.42;60.62
37291;BME280;23175;-33.706;151.094;2023-04-20T05:26:22;100539.20;;;15.59;60.40
37291;BME280;23175;-33.706;151.094;2023-04-20T05:28:52;100543.90;;;13.76;64.18
37291;BME280;23175;-33.706;151.094;2023-04-20T05:31:21;100545.28;;;13.24;65.19
37291;BME280;23175;-33.706;151.094;2023-04-20T05:33:52;100542.10;;;13.93;63.16
37291;BME280;23175;-33.706;151.094;2023-04-20T05:36:21;100542.71;;;14.05;61.94
37291;BME280;23175;-33.706;151.094;2023-04-20T05:38:51;100545.63;;;15.42;60.29
37291;BME280;23175;-33.706;151.094;2023-04-20T05:41:22;100542.06;;;15.11;60.59
37291;BME280;23175;-33.706;151.094;2023-04-20T05:43:52;100542.67;;;14.32;61.18
37291;BME280;23175;-33.706;151.094;2023-04-20T05:46:22;100548.25;;;13.88;63.01
37291;BME280;23175;-33.706;151.094;2023-04-20T05:48:54;100551.18;;;13.23;65.53
37291;BME280;23175;-33.706;151.094;2023-04-20T05:51:24;100545.57;;;15.31;62.79
37291;BME280;23175;-33.706;151.094;2023-04-20T05:53:54;100550.58;;;15.86;59.16
37291;BME280;23175;-33.706;151.094;2023-04-20T05:56:24;100556.25;;;12.18;67.08
37291;BME280;23175;-33.706;151.094;2023-04-20T05:58:54;100560.75;;;12.82;66.88
37291;BME280;23175;-33.706;151.094;2023-04-20T06:01:25;100564.32;;;12.50;68.63
37291;BME280;23175;-33.706;151.094;2023-04-20T06:03:55;100564.25;;;12.82;66.79
37291;BME280;23175;-33.706;151.094;2023-04-20T06:06:25;100565.73;;;14.19;64.94
37291;BME280;23175;-33.706;151.094;2023-04-20T06:08:55;100565.90;;;11.90;68.31
37291;BME280;23175;-33.706;151.094;2023-04-20T06:11:25;100571.00;;;12.19;69.08
37291;BME280;23175;-33.706;151.094;2023-04-20T06:13:55;100570.64;;;14.14;64.89
37291;BME280;23175;-33.706;151.094;2023-04-20T06:16:25;100575.91;;;15.32;61.54
37291;BME280;23175;-33.706;151.094;2023-04-20T06:18:56;100577.34;;;14.68;63.24
37291;BME280;23175;-33.706;151.094;2023-04-20T06:21:26;100577.30;;;12.49;67.66
37291;BME280;23175;-33.706;151.094;2023-04-20T06:23:56;100579.17;;;13.74;65.54
37291;BME280;23175;-33.706;151.094;2023-04-20T06:26:26;100579.90;;;12.09;69.20
37291;BME280;23175;-33.706;151.094;2023-04-20T06:28:56;100581.63;;;13.38;66.31
37291;BME280;23175;-33.706;151.094;2023-04-20T06:31:26;100589.24;;;11.49;70.19
37291;BME280;23175;-33.706;151.094;2023-04-20T06:33:56;100595.54;;;14.78;63.04
37291;BME280;23175;-33.706;151.094;2023-04-20T06:36:27;100593.67;;;14.85;61.61
37291;BME280;23175;-33.706;151.094;2023-04-20T06:38:57;100596.10;;;12.54;65.38
37291;BME280;23175;-33.706;151.094;2023-04-20T06:41:32;100600.37;;;14.89;60.54
37291;BME280;23175;-33.706;151.094;2023-04-20T06:44:02;100605.44;;;12.24;67.63
37291;BME280;23175;-33.706;151.094;2023-04-20T06:46:32;100606.59;;;14.16;64.08
37291;BME280;23175;-33.706;151.094;2023-04-20T06:49:03;100610.95;;;14.75;62.87
37291;BME280;23175;-33.706;151.094;2023-04-20T06:51:33;100612.42;;;15.36;58.25
37291;BME280;23175;-33.706;151.094;2023-04-20T06:54:03;100613.77;;;15.61;58.06
37291;BME280;23175;-33.706;151.094;2023-04-20T06:56:33;100621.06;;;14.64;61.01
37291;BME280;23175;-33.706;151.094;2023-04-20T06:59:03;100624.04;;;15.36;60.38
37291;BME280;23175;-33.706;151.094;2023-04-20T07:01:33;100626.35;;;14.71;60.33
37291;BME280;23175;-33.706;151.094;2023-04-20T07:04:03;100626.67;;;15.59;59.20
37291;BME280;23175;-33.706;151.094;2023-04-20T07:06:33;100635.54;;;13.82;60.59
37291;BME280;23175;-33.706;151.094;2023-04-20T07:09:03;100642.51;;;13.93;62.44
37291;BME280;23175;-33.706;151.094;2023-04-20T07:11:32;100649.32;;;13.67;64.65
37291;BME280;23175;-33.706;151.094;2023-04-20T07:14:02;100647.65;;;15.20;60.89
37291;BME280;23175;-33.706;151.094;2023-04-20T07:16:33;100653.55;;;13.59;63.42
37291;BME280;23175;-33.706;151.094;2023-04-20T07:19:03;100656.43;;;15.80;59.33
37291;BME280;23175;-33.706;151.094;2023-04-20T07:21:33;100658.42;;;11.90;67.69
37291;BME280;23175;-33.706;151.094;2023-04-20T07:24:03;100660.05;;;12.13;65.70
37291;BME280;23175;-33.706;151.094;2023-04-20T07:26:33;100665.05;;;16.23;58.84
37291;BME280;23175;-33.706;151.094;2023-04-20T07:29:03;100668.70;;;16.15;58.45
37291;BME280;23175;-33.706;151.094;2023-04-20T07:31:34;100667.75;;;16.30;57.89
37291;BME280;23175;-33.706;151.094;2023-04-20T07:34:04;100670.23;;;15.92;57.60
37291;BME280;23175;-33.706;151.094;2023-04-20T07:36:34;100678.17;;;14.12;61.32
37291;BME280;23175;-33.706;151.094;2023-04-20T07:39:04;100680.06;;;17.37;55.49
37291;BME280;23175;-33.706;151.094;2023-04-20T07:41:35;100680.28;;;17.82;53.64
37291;BME280;23175;-33.706;151.094;2023-04-20T07:44:05;100685.02;;;18.14;52.92
37291;BME280;23175;-33.706;151.094;2023-04-20T07:46:35;100691.73;;;13.61;60.60
37291;BME280;23175;-33.706;151.094;2023-04-20T07:49:05;100693.61;;;17.15;55.33
37291;BME280;23175;-33.706;151.094;2023-04-20T07:51:35;100694.56;;;17.81;53.64
37291;BME280;23175;-33.706;151.094;2023-04-20T07:54:05;100698.07;;;17.77;53.14
37291;BME280;23175;-33.706;151.094;2023-04-20T07:56:34;100700.41;;;16.74;53.90
37291;BME280;23175;-33.706;151.094;2023-04-20T07:59:04;100706.01;;;14.20;59.76
37291;BME280;23175;-33.706;151.094;2023-04-20T08:01:35;100705.44;;;17.96;52.39
37291;BME280;23175;-33.706;151.094;2023-04-20T08:04:05;100709.25;;;17.32;54.38
37291;BME280;23175;-33.706;151.094;2023-04-20T08:06:35;100710.69;;;16.37;54.66
37291;BME280;23175;-33.706;151.094;2023-04-20T08:09:06;100719.75;;;15.86;56.92
37291;BME280;23175;-33.706;151.094;2023-04-20T08:11:35;100728.44;;;15.00;59.08
37291;BME280;23175;-33.706;151.094;2023-04-20T08:14:05;100727.90;;;14.94;58.32
37291;BME280;23175;-33.706;151.094;2023-04-20T08:16:35;100733.30;;;15.11;58.99
37291;BME280;23175;-33.706;151.094;2023-04-20T08:19:05;100733.67;;;16.24;57.00
37291;BME280;23175;-33.706;151.094;2023-04-20T08:21:36;100728.23;;;16.66;55.23
37291;BME280;23175;-33.706;151.094;2023-04-20T08:24:08;100734.60;;;12.55;62.01
37291;BME280;23175;-33.706;151.094;2023-04-20T08:26:38;100733.82;;;16.86;54.91
37291;BME280;23175;-33.706;151.094;2023-04-20T08:29:09;100737.69;;;15.11;58.09
37291;BME280;23175;-33.706;151.094;2023-04-20T08:31:39;100739.85;;;14.79;57.99
37291;BME280;23175;-33.706;151.094;2023-04-20T08:34:10;100743.49;;;16.26;56.33
37291;BME280;23175;-33.706;151.094;2023-04-20T08:36:40;100744.86;;;13.54;61.25
37291;BME280;23175;-33.706;151.094;2023-04-20T08:39:12;100743.28;;;17.70;52.90
37291;BME280;23175;-33.706;151.094;2023-04-20T08:41:42;100745.82;;;18.13;51.50
37291;BME280;23175;-33.706;151.094;2023-04-20T08:44:12;100751.62;;;18.44;51.13
37291;BME280;23175;-33.706;151.094;2023-04-20T08:46:45;100753.51;;;18.06;51.17
37291;BME280;23175;-33.706;151.094;2023-04-20T08:49:17;100757.06;;;17.83;51.53
37291;BME280;23175;-33.706;151.094;2023-04-20T08:51:48;100755.89;;;16.58;54.41
37291;BME280;23175;-33.706;151.094;2023-04-20T08:54:18;100759.64;;;17.58;53.12
37291;BME280;23175;-33.706;151.094;2023-04-20T08:56:48;100757.92;;;18.04;51.37
37291;BME280;23175;-33.706;151.094;2023-04-20T08:59:20;100762.58;;;16.75;53.35
37291;BME280;23175;-33.706;151.094;2023-04-20T09:01:50;100765.67;;;18.37;50.83
37291;BME280;23175;-33.706;151.094;2023-04-20T09:04:21;100768.81;;;17.42;52.32
37291;BME280;23175;-33.706;151.094;2023-04-20T09:06:53;100768.48;;;18.03;51.52
37291;BME280;23175;-33.706;151.094;2023-04-20T09:09:24;100770.46;;;17.82;51.00
37291;BME280;23175;-33.706;151.094;2023-04-20T09:12:01;100778.97;;;16.38;54.79
37291;BME280;23175;-33.706;151.094;2023-04-20T09:14:42;100778.90;;;17.96;52.28
37291;BME280;23175;-33.706;151.094;2023-04-20T09:17:13;100777.64;;;17.99;51.34
37291;BME280;23175;-33.706;151.094;2023-04-20T09:19:52;100777.65;;;18.31;50.39
37291;BME280;23175;-33.706;151.094;2023-04-20T09:22:30;100780.72;;;18.25;50.13
37291;BME280;23175;-33.706;151.094;2023-04-20T09:25:10;100784.68;;;18.28;50.23
37291;BME280;23175;-33.706;151.094;2023-04-20T09:27:41;100785.41;;;18.12;50.15
37291;BME280;23175;-33.706;151.094;2023-04-20T09:30:11;100789.89;;;17.29;52.11
37291;BME280;23175;-33.706;151.094;2023-04-20T09:32:41;100794.77;;;16.16;54.62
37291;BME280;23175;-33.706;151.094;2023-04-20T09:35:11;100796.13;;;17.24;52.01
37291;BME280;23175;-33.706;151.094;2023-04-20T09:37:48;100797.13;;;18.06;50.81
37291;BME280;23175;-33.706;151.094;2023-04-20T09:40:18;100795.07;;;17.11;52.07
37291;BME280;23175;-33.706;151.094;2023-04-20T09:42:49;100796.13;;;16.16;53.51
37291;BME280;23175;-33.706;151.094;2023-04-20T09:45:20;100799.82;;;17.18;52.91
37291;BME280;23175;-33.706;151.094;2023-04-20T09:47:51;100801.33;;;17.44;51.91
37291;BME280;23175;-33.706;151.094;2023-04-20T09:50:21;100807.41;;;17.54;50.88
37291;BME280;23175;-33.706;151.094;2023-04-20T09:52:52;100813.05;;;14.77;56.61
37291;BME280;23175;-33.706;151.094;2023-04-20T09:55:24;100810.91;;;17.98;50.83
37291;BME280;23175;-33.706;151.094;2023-04-20T09:57:55;100814.63;;;18.20;50.50
37291;BME280;23175;-33.706;151.094;2023-04-20T10:00:26;100815.75;;;18.31;49.88
37291;BME280;23175;-33.706;151.094;2023-04-20T10:02:56;100817.26;;;18.58;49.58
37291;BME280;23175;-33.706;151.094;2023-04-20T10:05:34;100815.18;;;18.43;49.63
37291;BME280;23175;-33.706;151.094;2023-04-20T10:08:03;100814.51;;;18.59;49.53
37291;BME280;23175;-33.706;151.094;2023-04-20T10:10:45;100817.89;;;18.75;49.81
37291;BME280;23175;-33.706;151.094;2023-04-20T10:13:15;100820.15;;;18.36;49.38
37291;BME280;23175;-33.706;151.094;2023-04-20T10:15:46;100820.40;;;18.63;49.45
37291;BME280;23175;-33.706;151.094;2023-04-20T10:18:19;100817.52;;;18.60;49.43
37291;BME280;23175;-33.706;151.094;2023-04-20T10:20:51;100818.34;;;18.34;49.30
37291;BME280;23175;-33.706;151.094;2023-04-20T10:23:33;100818.73;;;18.29;49.37
37291;BME280;23175;-33.706;151.094;2023-04-20T10:26:03;100824.13;;;18.26;49.29
37291;BME280;23175;-33.706;151.094;2023-04-20T10:28:40;100825.10;;;18.13;50.56
37291;BME280;23175;-33.706;151.094;2023-04-20T10:31:12;100822.74;;;18.39;49.48
37291;BME280;23175;-33.706;151.094;2023-04-20T10:33:58;100825.71;;;18.75;49.10
37291;BME280;23175;-33.706;151.094;2023-04-20T10:36:30;100824.98;;;18.42;49.31
37291;BME280;23175;-33.706;151.094;2023-04-20T10:39:01;100827.26;;;18.42;49.37
37291;BME280;23175;-33.706;151.094;2023-04-20T10:41:52;100829.66;;;18.64;49.38
37291;BME280;23175;-33.706;151.094;2023-04-20T10:44:22;100831.27;;;18.66;49.25
37291;BME280;23175;-33.706;151.094;2023-04-20T10:46:53;100835.02;;;18.40;49.20
37291;BME280;23175;-33.706;151.094;2023-04-20T10:49:28;100838.64;;;18.28;49.04
37291;BME280;23175;-33.706;151.094;2023-04-20T10:51:58;100840.82;;;18.51;49.11
37291;BME280;23175;-33.706;151.094;2023-04-20T10:54:37;100841.30;;;18.19;49.81
37291;BME280;23175;-33.706;151.094;2023-04-20T10:57:07;100841.89;;;18.41;49.60
37291;BME280;23175;-33.706;151.094;2023-04-20T10:59:37;100846.33;;;18.16;49.61
37291;BME280;23175;-33.706;151.094;2023-04-20T11:02:08;100847.38;;;18.49;49.96
37291;BME280;23175;-33.706;151.094;2023-04-20T11:04:38;100850.43;;;18.33;49.61
37291;BME280;23175;-33.706;151.094;2023-04-20T11:07:09;100849.06;;;18.90;48.90
37291;BME280;23175;-33.706;151.094;2023-04-20T11:09:40;100848.23;;;18.52;49.04
37291;BME280;23175;-33.706;151.094;2023-04-20T11:12:11;100851.91;;;18.43;49.05
37291;BME280;23175;-33.706;151.094;2023-04-20T11:14:52;100851.25;;;18.18;49.22
37291;BME280;23175;-33.706;151.094;2023-04-20T11:17:32;100852.71;;;18.31;49.83
37291;BME280;23175;-33.706;151.094;2023-04-20T11:20:10;100854.04;;;18.41;49.73
37291;BME280;23175;-33.706;151.094;2023-04-20T11:22:41;100856.47;;;18.13;50.30
37291;BME280;23175;-33.706;151.094;2023-04-20T11:25:13;100858.77;;;18.37;49.57
37291;BME280;23175;-33.706;151.094;2023-04-20T11:27:42;100861.29;;;18.45;49.16
37291;BME280;23175;-33.706;151.094;2023-04-20T11:30:13;100860.03;;;18.36;49.05
37291;BME280;23175;-33.706;151.094;2023-04-20T11:32:52;100861.10;;;18.32;48.98
37291;BME280;23175;-33.706;151.094;2023-04-20T11:35:24;100859.16;;;17.46;50.27
37291;BME280;23175;-33.706;151.094;2023-04-20T11:37:54;100858.32;;;17.95;48.75
37291;BME280;23175;-33.706;151.094;2023-04-20T11:40:23;100858.40;;;18.36;48.84
37291;BME280;23175;-33.706;151.094;2023-04-20T11:42:54;100860.71;;;17.74;50.06
37291;BME280;23175;-33.706;151.094;2023-04-20T11:45:24;100861.12;;;18.02;49.48
37291;BME280;23175;-33.706;151.094;2023-04-20T11:47:54;100861.70;;;17.55;50.18
37291;BME280;23175;-33.706;151.094;2023-04-20T11:50:24;100864.78;;;18.01;48.97
37291;BME280;23175;-33.706;151.094;2023-04-20T11:52:54;100868.56;;;17.29;50.09
37291;BME280;23175;-33.706;151.094;2023-04-20T11:55:24;100866.53;;;18.22;49.24
37291;BME280;23175;-33.706;151.094;2023-04-20T11:57:54;100870.70;;;17.47;48.83
37291;BME280;23175;-33.706;151.094;2023-04-20T12:00:24;100874.73;;;18.12;48.79
37291;BME280;23175;-33.706;151.094;2023-04-20T12:02:55;100876.62;;;17.82;48.80
37291;BME280;23175;-33.706;151.094;2023-04-20T12:05:24;100873.79;;;17.88;48.91
37291;BME280;23175;-33.706;151.094;2023-04-20T12:07:55;100875.85;;;17.47;49.57
37291;BME280;23175;-33.706;151.094;2023-04-20T12:10:25;100872.03;;;18.19;48.95
37291;BME280;23175;-33.706;151.094;2023-04-20T12:12:55;100871.76;;;17.70;49.39
37291;BME280;23175;-33.706;151.094;2023-04-20T12:15:26;100877.70;;;17.29;50.11
37291;BME280;23175;-33.706;151.094;2023-04-20T12:17:57;100879.40;;;17.62;49.98
37291;BME280;23175;-33.706;151.094;2023-04-20T12:20:28;100877.50;;;17.37;50.16
37291;BME280;23175;-33.706;151.094;2023-04-20T12:22:58;100876.81;;;17.75;49.43
37291;BME280;23175;-33.706;151.094;2023-04-20T12:25:29;100871.53;;;17.69;48.78
37291;BME280;23175;-33.706;151.094;2023-04-20T12:27:59;100870.87;;;17.80;48.79
37291;BME280;23175;-33.706;151.094;2023-04-20T12:30:28;100871.34;;;17.66;48.95
37291;BME280;23175;-33.706;151.094;2023-04-20T12:32:59;100867.37;;;17.54;48.74
37291;BME280;23175;-33.706;151.094;2023-04-20T12:35:28;100864.05;;;17.60;48.72
37291;BME280;23175;-33.706;151.094;2023-04-20T12:37:59;100866.24;;;17.70;49.17